Time;durP1;ratioP1;P1;durP2;ratioP2;P2;SDS_P1;SDS_P2;PMS_P1;PMS_P2;Temp;Humidity;BMP_temperature;BMP_pressure;BME280_temperature;BME280_humidity;BME280_pressure;Samples;Min_cycle;Max_cycle;Signal;HPM_P1;HPM_P2
2022/01/22 00:00:28;;;;;;;30.73;13.90;;;;;;;2.90;100.00;103226.59;5075598;28;20028;-70
2022/01/22 00:02:54;;;;;;;29.27;14.38;;;;;;;2.94;100.00;103232.94;5075301;28;20108;-71
2022/01/22 00:05:20;;;;;;;34.47;14.70;;;;;;;2.94;100.00;103225.09;5075145;28;20037;-70
2022/01/22 00:07:46;;;;;;;30.38;15.00;;;;;;;2.95;100.00;103226.94;5075357;28;20554;-71
2022/01/22 00:10:18;;;;;;;30.40;15.18;;;;;;;2.93;100.00;103225.91;5075563;28;20100;-71
2022/01/22 00:15:19;;;;;;;31.75;15.70;;;;;;;2.92;100.00;103224.09;5075366;28;20032;-71
2022/01/22 00:17:47;;;;;;;31.60;15.65;;;;;;;2.91;100.00;103220.59;5073227;28;20380;-71
2022/01/22 00:20:15;;;;;;;29.45;14.88;;;;;;;2.92;100.00;103217.16;5074941;28;20131;-71
2022/01/22 00:22:42;;;;;;;29.50;15.23;;;;;;;2.94;100.00;103214.66;5075453;28;20031;-71
2022/01/22 00:25:09;;;;;;;28.92;14.85;;;;;;;2.90;100.00;103213.53;5075008;28;20024;-71
2022/01/22 00:27:36;;;;;;;31.63;14.90;;;;;;;2.91;100.00;103214.44;5074880;28;20071;-71
2022/01/22 00:30:12;;;;;;;31.65;14.93;;;;;;;2.91;100.00;103217.97;5075074;28;20024;-71
2022/01/22 00:32:37;;;;;;;31.60;15.27;;;;;;;2.93;100.00;103212.84;5071187;28;20044;-71
2022/01/22 00:35:05;;;;;;;29.05;14.20;;;;;;;2.93;100.00;103197.19;5075055;28;20016;-71
2022/01/22 00:37:30;;;;;;;28.92;14.60;;;;;;;2.91;100.00;103190.91;5074694;28;20037;-71
2022/01/22 00:39:56;;;;;;;30.40;14.45;;;;;;;2.93;100.00;103202.41;5074992;28;20062;-71
2022/01/22 00:42:22;;;;;;;29.52;13.90;;;;;;;2.93;100.00;103199.78;5074588;28;20090;-71
2022/01/22 00:44:51;;;;;;;28.60;13.75;;;;;;;2.93;100.00;103200.69;5074592;28;20375;-71
2022/01/22 00:47:17;;;;;;;28.88;13.80;;;;;;;2.94;100.00;103194.66;5074583;28;20102;-71
2022/01/22 00:49:43;;;;;;;28.33;13.80;;;;;;;2.95;100.00;103195.56;5074545;28;20035;-71
2022/01/22 00:52:08;;;;;;;30.15;13.90;;;;;;;2.94;100.00;103193.75;5074517;28;20033;-70
2022/01/22 00:54:33;;;;;;;29.13;14.18;;;;;;;2.96;100.00;103194.78;5074574;28;20022;-71
2022/01/22 00:56:59;;;;;;;26.73;14.07;;;;;;;2.94;100.00;103193.75;5074666;28;20032;-71
2022/01/22 00:59:24;;;;;;;31.95;14.93;;;;;;;2.94;100.00;103204.19;5074381;28;20095;-70
2022/01/22 01:01:50;;;;;;;29.85;14.70;;;;;;;2.96;100.00;103200.00;5074347;28;20028;-70
2022/01/22 01:04:15;;;;;;;29.35;14.75;;;;;;;2.95;100.00;103209.53;5074479;28;20028;-70
2022/01/22 01:06:41;;;;;;;30.38;14.55;;;;;;;2.96;100.00;103208.75;5073325;28;20021;-70
2022/01/22 01:09:08;;;;;;;30.70;15.40;;;;;;;2.96;100.00;103213.06;5074484;28;20028;-70
2022/01/22 01:11:38;;;;;;;28.58;15.65;;;;;;;2.96;100.00;103216.59;5074059;28;20532;-70
2022/01/22 01:14:06;;;;;;;28.48;15.38;;;;;;;2.97;100.00;103212.25;5073950;28;20107;-70
2022/01/22 01:32:54;;;;;;;32.35;16.83;;;;;;;2.99;100.00;103208.06;5070652;28;20102;-70
2022/01/22 01:35:21;;;;;;;29.92;17.00;;;;;;;3.01;100.00;103214.31;5073852;28;20069;-70
2022/01/22 01:37:46;;;;;;;34.47;17.85;;;;;;;2.99;100.00;103205.44;5073538;28;20065;-70
2022/01/22 01:40:16;;;;;;;31.58;17.70;;;;;;;2.99;100.00;103209.78;5073676;28;20020;-70
2022/01/22 01:42:57;;;;;;;33.75;18.02;;;;;;;2.99;100.00;103208.06;5073359;28;20024;-70
2022/01/22 01:45:23;;;;;;;33.05;17.83;;;;;;;3.00;100.00;103216.81;5073428;28;20020;-70
2022/01/22 01:47:57;;;;;;;34.28;18.73;;;;;;;2.99;100.00;103215.91;5073533;28;20025;-70
2022/01/22 01:50:23;;;;;;;34.78;19.05;;;;;;;2.98;100.00;103219.31;5073097;28;20036;-70
2022/01/22 01:53:04;;;;;;;34.35;18.83;;;;;;;2.99;100.00;103226.34;5073165;28;20028;-71
2022/01/22 01:55:46;;;;;;;32.65;18.73;;;;;;;3.00;100.00;103222.97;5073522;28;20103;-71
2022/01/22 01:58:12;;;;;;;32.25;19.45;;;;;;;3.00;100.00;103222.03;5070243;28;20386;-70
2022/01/22 02:00:38;;;;;;;34.58;19.75;;;;;;;3.00;100.00;103203.75;5073251;28;20107;-71
2022/01/22 02:03:03;;;;;;;32.85;19.60;;;;;;;2.99;100.00;103202.84;5073296;28;20070;-70
2022/01/22 02:05:29;;;;;;;35.80;20.75;;;;;;;2.99;100.00;103196.72;5073330;28;20115;-71
2022/01/22 02:07:55;;;;;;;34.70;20.20;;;;;;;3.00;100.00;103198.50;5073271;28;20471;-71
2022/01/22 02:10:26;;;;;;;36.03;21.80;;;;;;;3.00;100.00;103214.19;5073281;28;20052;-70
2022/01/22 02:26:06;;;;;;;36.28;23.77;;;;;;;3.16;100.00;103198.84;5072906;28;20478;-70
2022/01/22 02:28:32;;;;;;;38.30;24.95;;;;;;;3.16;100.00;103205.75;5072707;28;20032;-71
2022/01/22 02:31:27;;;;;;;38.33;25.15;;;;;;;3.22;100.00;103195.72;5073043;28;20035;-69
2022/01/22 02:36:37;;;;;;;42.03;26.85;;;;;;;3.13;100.00;103206.44;5073046;28;20506;-69
2022/01/22 02:41:29;;;;;;;44.00;28.30;;;;;;;3.11;100.00;103208.03;5072731;28;20040;-70
2022/01/22 02:43:55;;;;;;;44.60;29.35;;;;;;;3.07;100.00;103204.31;5072567;28;20027;-70
2022/01/22 02:46:24;;;;;;;41.85;29.38;;;;;;;3.08;100.00;103203.50;5072702;28;20020;-69
2022/01/22 02:48:51;;;;;;;44.22;28.70;;;;;;;3.09;100.00;103210.56;5072803;28;20028;-69
2022/01/22 02:51:17;;;;;;;43.20;29.35;;;;;;;3.07;100.00;103212.16;5072390;28;20032;-69
2022/01/22 02:53:42;;;;;;;46.00;30.20;;;;;;;3.04;100.00;103211.91;5072863;28;20090;-70
2022/01/22 02:56:07;;;;;;;45.85;29.17;;;;;;;3.10;100.00;103203.59;5072508;28;20062;-70
2022/01/22 02:58:34;;;;;;;44.42;30.13;;;;;;;3.05;100.00;103211.13;5072601;28;20035;-70
2022/01/22 03:00:59;;;;;;;44.92;30.23;;;;;;;3.08;100.00;103216.56;5072793;28;20082;-70
2022/01/22 03:03:24;;;;;;;47.97;30.80;;;;;;;3.04;100.00;103214.50;5072416;28;20028;-69
2022/01/22 03:05:50;;;;;;;45.83;31.02;;;;;;;3.04;100.00;103219.75;5072499;28;20360;-70
2022/01/22 03:08:15;;;;;;;46.03;31.40;;;;;;;3.03;100.00;103217.94;5072309;28;20662;-70
2022/01/22 03:10:49;;;;;;;52.10;32.40;;;;;;;3.03;100.00;103214.41;5072476;28;20031;-70
2022/01/22 03:16:12;;;;;;;47.08;31.52;;;;;;;3.02;100.00;103212.63;5072583;28;20039;-71
2022/01/22 03:29:18;;;;;;;48.85;33.22;;;;;;;3.03;100.00;103206.56;5026857;28;20044;-71
2022/01/22 03:31:44;;;;;;;46.75;31.85;;;;;;;3.07;100.00;103214.78;5033816;28;20508;-71
2022/01/22 03:34:10;;;;;;;52.22;33.65;;;;;;;3.09;100.00;103218.38;5034104;28;20067;-71
2022/01/22 03:36:36;;;;;;;50.13;34.58;;;;;;;3.05;100.00;103213.72;5033827;28;20033;-71
2022/01/22 03:39:04;;;;;;;57.72;35.47;;;;;;;3.02;100.00;103208.28;5033803;28;20034;-71
2022/01/22 03:41:30;;;;;;;52.03;34.45;;;;;;;3.09;100.00;103212.28;5033780;28;20087;-71
2022/01/22 03:43:56;;;;;;;52.45;35.13;;;;;;;3.06;100.00;103214.63;5033609;28;20041;-71
2022/01/22 03:46:21;;;;;;;53.33;36.45;;;;;;;3.05;100.00;103211.13;5033539;28;20121;-71
2022/01/22 03:48:47;;;;;;;56.00;36.28;;;;;;;3.04;100.00;103211.91;5033757;28;20030;-70
2022/01/22 03:51:13;;;;;;;58.70;38.83;;;;;;;3.06;100.00;103217.25;5033610;28;20069;-71
2022/01/22 03:53:38;;;;;;;54.47;36.97;;;;;;;3.07;100.00;103222.63;5033634;28;20041;-71
2022/01/22 03:56:05;;;;;;;59.33;37.47;;;;;;;3.08;100.00;103215.66;5033661;28;20037;-71
2022/01/22 03:58:36;;;;;;;59.55;38.10;;;;;;;3.07;100.00;103214.78;5033276;28;20030;-71
2022/01/22 04:03:43;;;;;;;54.95;36.03;;;;;;;3.08;100.00;103211.34;5067796;28;20103;-71
2022/01/22 04:08:46;;;;;;;61.25;41.55;;;;;;;3.08;100.00;103220.91;5072513;28;20040;-70
2022/01/22 04:11:15;;;;;;;64.63;42.17;;;;;;;3.08;100.00;103205.22;5075408;28;20028;-71
2022/01/22 04:13:40;;;;;;;67.85;43.40;;;;;;;3.08;100.00;103211.34;5071970;28;20082;-70
2022/01/22 04:16:07;;;;;;;58.63;40.95;;;;;;;3.08;100.00;103210.44;5075141;28;20021;-70
2022/01/22 04:29:23;;;;;;;71.38;46.22;;;;;;;3.10;100.00;103203.59;5074967;28;20032;-70
2022/01/22 04:31:49;;;;;;;71.22;44.70;;;;;;;3.11;100.00;103203.72;5075042;28;20020;-69
2022/01/22 04:34:15;;;;;;;72.78;46.25;;;;;;;3.11;100.00;103205.44;5074604;28;20032;-70
2022/01/22 04:36:40;;;;;;;75.35;44.92;;;;;;;3.13;100.00;103209.06;5075096;28;20030;-71
2022/01/22 04:39:06;;;;;;;73.40;46.47;;;;;;;3.13;100.00;103201.22;5074992;28;20096;-70
2022/01/22 04:41:31;;;;;;;73.40;47.20;;;;;;;3.17;100.00;103202.34;5074720;28;20455;-71
2022/01/22 04:44:00;;;;;;;71.90;46.67;;;;;;;3.16;100.00;103209.31;5074916;28;20432;-70
2022/01/22 04:52:33;;;;;;;79.72;49.00;;;;;;;3.21;100.00;103205.28;5029558;28;20029;-70
2022/01/22 04:55:02;;;;;;;75.38;46.10;;;;;;;3.21;100.00;103199.16;5029760;28;20063;-70
2022/01/22 04:57:32;;;;;;;70.50;44.25;;;;;;;3.25;100.00;103201.22;5032432;28;20029;-70
2022/01/22 04:59:58;;;;;;;76.03;47.70;;;;;;;3.23;100.00;103215.88;5032377;28;20539;-70
2022/01/22 05:02:24;;;;;;;71.47;44.25;;;;;;;3.23;100.00;103208.94;5032208;28;20030;-70
2022/01/22 05:04:50;;;;;;;73.90;45.25;;;;;;;3.29;100.00;103206.78;5032485;28;20032;-70
2022/01/22 05:07:15;;;;;;;70.05;43.88;;;;;;;3.34;100.00;103203.59;5032079;28;20077;-71
2022/01/22 05:09:41;;;;;;;70.88;46.15;;;;;;;3.28;100.00;103196.19;5032123;28;20503;-70
2022/01/22 05:12:07;;;;;;;74.03;44.40;;;;;;;3.29;100.00;103209.38;5032237;28;20049;-71
2022/01/22 05:14:33;;;;;;;74.72;44.95;;;;;;;3.30;100.00;103205.06;5031926;28;20034;-70
2022/01/22 05:17:01;;;;;;;70.03;44.25;;;;;;;3.30;100.00;103207.66;5031916;28;20087;-71
2022/01/22 05:19:38;;;;;;;72.47;42.60;;;;;;;3.34;100.00;103208.81;5031839;28;20550;-70
2022/01/22 05:22:40;;;;;;;73.55;47.10;;;;;;;3.33;100.00;103202.66;5031907;28;20044;-70
2022/01/22 05:24:53;;;;;;;72.35;44.97;;;;;;;3.32;100.00;103206.09;5031528;28;20033;-70
2022/01/22 05:30:04;;;;;;;74.70;46.03;;;;;;;3.31;100.00;103199.03;5074209;28;20024;-70
2022/01/22 05:37:48;;;;;;;72.90;44.00;;;;;;;3.33;100.00;103189.56;5071422;28;20104;-70
2022/01/22 05:40:14;;;;;;;76.22;47.90;;;;;;;3.33;100.00;103200.03;5073803;28;20036;-70
2022/01/22 05:42:39;;;;;;;73.65;45.55;;;;;;;3.39;100.00;103207.41;5073540;28;20020;-71
2022/01/22 05:45:06;;;;;;;73.63;44.08;;;;;;;3.33;100.00;103201.75;5073614;28;20013;-70
2022/01/22 05:47:31;;;;;;;69.00;45.83;;;;;;;3.39;100.00;103203.09;5073168;28;20379;-70
2022/01/22 05:49:58;;;;;;;75.68;47.83;;;;;;;3.34;100.00;103203.59;5073829;28;20319;-70
2022/01/22 05:52:32;;;;;;;71.78;45.45;;;;;;;3.34;100.00;103206.19;5073168;28;20028;-70
2022/01/22 06:00:21;;;;;;;76.57;46.17;;;;;;;3.36;100.00;103208.09;4982503;28;20038;-70
2022/01/22 06:02:47;;;;;;;73.40;45.72;;;;;;;3.37;100.00;103207.31;4980956;28;20557;-70
2022/01/22 06:05:12;;;;;;;69.13;42.47;;;;;;;3.36;100.00;103210.72;4983752;28;20482;-70
2022/01/22 06:07:37;;;;;;;71.78;45.55;;;;;;;3.37;100.00;103212.53;4980350;28;20038;-71
2022/01/22 06:10:15;;;;;;;70.40;44.47;;;;;;;3.40;100.00;103214.47;4983118;28;20037;-70
2022/01/22 06:12:57;;;;;;;71.70;45.60;;;;;;;3.40;100.00;103217.97;4988065;28;20069;-70
2022/01/22 06:15:23;;;;;;;76.63;46.17;;;;;;;3.39;100.00;103210.94;4989816;28;20038;-70
2022/01/22 06:17:48;;;;;;;75.03;45.40;;;;;;;3.38;100.00;103210.81;4991478;28;20121;-70
2022/01/22 06:20:15;;;;;;;71.78;44.25;;;;;;;3.40;100.00;103220.59;4991257;28;20065;-70
2022/01/22 06:22:41;;;;;;;80.43;46.15;;;;;;;3.42;100.00;103208.56;4991733;28;20026;-70
2022/01/22 06:25:07;;;;;;;75.28;44.90;;;;;;;3.42;100.00;103210.25;4991388;28;20034;-70
2022/01/22 06:27:33;;;;;;;71.90;43.25;;;;;;;3.42;100.00;103216.41;4991434;28;20030;-70
2022/01/22 06:29:58;;;;;;;74.15;43.45;;;;;;;3.40;100.00;103209.25;4991271;28;20026;-70
2022/01/22 06:32:24;;;;;;;75.45;44.80;;;;;;;3.44;100.00;103199.09;4991415;28;20113;-70
2022/01/22 06:34:49;;;;;;;70.70;43.22;;;;;;;3.44;100.00;103212.19;4991539;28;20133;-70
2022/01/22 06:37:14;;;;;;;67.93;38.65;;;;;;;3.48;100.00;103208.97;5029000;28;20395;-71
2022/01/22 06:41:44;;;;;;;69.90;43.13;;;;;;;3.49;100.00;103212.50;5072670;28;20032;-71
2022/01/22 06:42:25;;;;;;;75.68;44.38;;;;;;;3.46;100.00;103221.03;5070542;28;20102;-70
2022/01/22 06:44:51;;;;;;;70.18;42.80;;;;;;;3.51;100.00;103225.69;5072953;28;20467;-71
2022/01/22 06:47:16;;;;;;;71.05;42.90;;;;;;;3.49;100.00;103221.28;5070731;28;20036;-71
2022/01/22 06:49:42;;;;;;;70.72;41.10;;;;;;;3.51;100.00;103223.06;5072553;28;20029;-71
2022/01/22 06:52:07;;;;;;;66.40;40.83;;;;;;;3.51;100.00;103228.28;5072740;28;20016;-71
2022/01/22 06:54:32;;;;;;;70.00;39.92;;;;;;;3.52;100.00;103227.50;5072283;28;20033;-71
2022/01/22 06:56:58;;;;;;;65.50;40.65;;;;;;;3.54;100.00;103225.91;5072313;28;20111;-70
2022/01/22 06:59:23;;;;;;;63.08;36.90;;;;;;;3.63;100.00;103231.81;5072663;28;20121;-71
2022/01/22 07:01:54;;;;;;;61.65;38.67;;;;;;;3.65;100.00;103240.66;5072710;28;20024;-72
2022/01/22 07:04:21;;;;;;;58.95;36.80;;;;;;;3.62;100.00;103235.22;5070769;28;20450;-71
2022/01/22 07:06:46;;;;;;;65.50;38.50;;;;;;;3.63;100.00;103221.34;5073986;28;20461;-71
2022/01/22 07:09:11;;;;;;;60.45;38.90;;;;;;;3.61;100.00;103234.31;5075333;28;20035;-71
2022/01/22 07:11:36;;;;;;;61.03;38.40;;;;;;;3.60;100.00;103231.59;5079289;28;20062;-71
2022/01/22 07:14:03;;;;;;;61.45;37.70;;;;;;;3.62;100.00;103248.28;5075887;28;20036;-69
2022/01/22 07:16:28;;;;;;;61.83;39.35;;;;;;;3.60;100.00;103244.66;5077564;28;21062;-70
2022/01/22 07:18:59;;;;;;;65.65;39.75;;;;;;;3.60;100.00;103258.66;5079660;28;20032;-71
2022/01/22 07:21:24;;;;;;;62.22;39.38;;;;;;;3.60;100.00;103266.50;5083879;28;20502;-72
2022/01/22 07:26:16;;;;;;;66.97;40.83;;;;;;;3.63;100.00;103271.03;5077436;28;20036;-72
2022/01/22 07:28:42;;;;;;;66.03;39.55;;;;;;;3.63;100.00;103261.47;5078921;28;20116;-72
2022/01/22 07:31:08;;;;;;;67.40;39.55;;;;;;;3.63;100.00;103269.31;5082944;28;20126;-71
2022/01/22 07:33:36;;;;;;;63.92;37.47;;;;;;;3.61;100.00;103260.47;5076535;28;20074;-71
2022/01/22 07:36:04;;;;;;;68.97;40.67;;;;;;;3.63;100.00;103263.19;5074664;28;20025;-73
2022/01/22 07:38:29;;;;;;;66.07;39.08;;;;;;;3.62;100.00;103269.22;5078906;28;20035;-72
2022/01/22 07:40:54;;;;;;;66.95;38.65;;;;;;;3.61;100.00;103265.69;5078286;28;20029;-74
2022/01/22 07:43:20;;;;;;;68.20;41.20;;;;;;;3.62;100.00;103270.09;5075761;28;20029;-74
2022/01/22 07:45:45;;;;;;;68.93;41.28;;;;;;;3.64;100.00;103280.69;5075357;28;20067;-73
2022/01/22 07:48:11;;;;;;;66.25;40.58;;;;;;;3.65;100.00;103274.66;5077786;28;20078;-73
2022/01/22 07:50:36;;;;;;;69.70;41.40;;;;;;;3.63;100.00;103271.03;5076700;28;20486;-74
2022/01/22 07:53:02;;;;;;;67.38;40.67;;;;;;;3.66;100.00;103279.09;5083837;28;20378;-74
2022/01/22 07:55:28;;;;;;;69.65;41.45;;;;;;;3.70;100.00;103272.38;5083113;28;20020;-71
2022/01/22 07:57:54;;;;;;;65.90;41.00;;;;;;;3.70;100.00;103268.06;5078755;28;20060;-71
2022/01/22 08:00:19;;;;;;;75.10;41.15;;;;;;;3.71;100.00;103267.25;5068704;28;20062;-68
2022/01/22 08:02:45;;;;;;;67.55;39.25;;;;;;;3.74;100.00;103275.34;5071874;28;20407;-72
2022/01/22 08:05:11;;;;;;;68.22;39.10;;;;;;;3.77;100.00;103272.94;5070503;28;20021;-72
2022/01/22 08:07:38;;;;;;;67.45;39.40;;;;;;;3.78;100.00;103266.88;5068560;28;20028;-69
2022/01/22 08:10:08;;;;;;;67.25;36.95;;;;;;;3.78;100.00;103272.13;5063878;28;20498;-69
2022/01/22 08:12:34;;;;;;;65.50;37.35;;;;;;;3.80;100.00;103275.75;5063027;28;20367;-69
2022/01/22 08:15:00;;;;;;;66.90;39.08;;;;;;;3.81;100.00;103267.09;5075056;28;20397;-70
2022/01/22 08:17:25;;;;;;;70.45;38.47;;;;;;;3.81;100.00;103269.72;5075021;28;20025;-70
2022/01/22 08:19:50;;;;;;;63.35;37.53;;;;;;;3.82;100.00;103273.25;5074993;28;20031;-70
2022/01/22 08:22:16;;;;;;;60.63;36.75;;;;;;;3.86;100.00;103270.06;5063378;28;20021;-71
2022/01/22 08:24:41;;;;;;;60.83;36.95;;;;;;;3.86;100.00;103270.06;5063369;28;20028;-70
2022/01/22 08:29:35;;;;;;;58.20;35.60;;;;;;;3.92;100.00;103280.94;5069366;28;20437;-71
2022/01/22 08:37:28;;;;;;;59.17;36.33;;;;;;;3.98;100.00;103270.00;5067797;28;20113;-71
2022/01/22 08:39:54;;;;;;;59.97;34.55;;;;;;;4.00;100.00;103265.78;5075519;28;20028;-72
2022/01/22 08:42:20;;;;;;;53.97;35.30;;;;;;;4.00;100.00;103265.78;5067238;28;20020;-72
2022/01/22 08:44:46;;;;;;;55.40;34.63;;;;;;;4.07;100.00;103275.88;5069715;28;20064;-73
2022/01/22 08:47:12;;;;;;;54.55;34.03;;;;;;;4.09;100.00;103269.06;5076338;28;20031;-73
2022/01/22 08:49:38;;;;;;;51.25;32.40;;;;;;;4.15;100.00;103273.78;5074087;28;20032;-73
2022/01/22 08:52:10;;;;;;;52.95;32.80;;;;;;;4.18;100.00;103274.91;5067457;28;20467;-72
2022/01/22 08:54:36;;;;;;;48.65;30.85;;;;;;;4.23;100.00;103276.94;5072187;28;20024;-72
2022/01/22 08:57:01;;;;;;;48.88;31.55;;;;;;;4.25;100.00;103275.34;5064095;28;20031;-72
2022/01/22 08:59:27;;;;;;;48.42;30.27;;;;;;;4.26;100.00;103282.41;5074021;28;20498;-72
2022/01/22 09:01:52;;;;;;;51.85;30.48;;;;;;;4.26;100.00;103275.44;5071692;28;20038;-71
2022/01/22 09:04:17;;;;;;;48.88;29.73;;;;;;;4.31;100.00;103291.47;5072356;28;20176;-72
2022/01/22 09:06:44;;;;;;;47.08;28.48;;;;;;;4.34;100.00;103286.47;5073056;28;20020;-71
2022/01/22 09:09:11;;;;;;;47.03;28.63;;;;;;;4.36;100.00;103295.31;5073136;28;20024;-71
2022/01/22 09:11:42;;;;;;;47.03;28.58;;;;;;;4.42;100.00;103300.97;5073528;28;20020;-72
2022/01/22 09:14:14;;;;;;;45.15;28.00;;;;;;;4.43;100.00;103305.41;5073629;28;20421;-72
2022/01/22 09:16:40;;;;;;;;;;;;;;;4.52;100.00;103313.00;5073756;28;20066;-71
2022/01/22 09:19:09;;;;;;;47.03;26.98;;;;;;;4.48;100.00;103311.88;5073137;28;19912;-73
2022/01/22 09:21:38;;;;;;;45.40;27.80;;;;;;;4.49;100.00;103313.69;5036161;28;1074465;-72
2022/01/22 09:24:04;;;;;;;43.63;27.13;;;;;;;4.51;100.00;103311.16;5073715;28;20090;-69
2022/01/22 09:26:30;;;;;;;45.92;26.90;;;;;;;4.53;100.00;103318.34;5073833;28;20433;-68
2022/01/22 09:28:58;;;;;;;45.75;26.95;;;;;;;4.57;100.00;103313.31;5073167;28;20029;-70
2022/01/22 09:31:25;;;;;;;47.30;27.90;;;;;;;4.58;100.00;103307.28;5073737;28;20033;-70
2022/01/22 09:33:50;;;;;;;44.70;26.63;;;;;;;4.63;100.00;103309.41;5073638;28;20379;-70
2022/01/22 09:36:16;;;;;;;45.70;27.75;;;;;;;4.67;100.00;103298.31;5073749;28;20025;-69
2022/01/22 09:38:41;;;;;;;43.60;27.08;;;;;;;4.70;100.00;103314.25;5073418;28;20032;-71
2022/01/22 09:41:07;;;;;;;43.33;28.25;;;;;;;4.73;100.00;103313.53;5073445;28;20039;-72
2022/01/22 09:43:33;;;;;;;46.72;27.67;;;;;;;4.71;100.00;103325.63;5073811;28;20054;-71
2022/01/22 09:45:58;;;;;;;44.53;27.63;;;;;;;4.75;100.00;103322.44;5073385;28;20108;-70
2022/01/22 09:48:24;;;;;;;45.92;27.45;;;;;;;4.79;100.00;103334.94;5072369;28;20135;-69
2022/01/22 09:50:49;;;;;;;44.65;26.48;;;;;;;4.82;100.00;103339.47;5073478;28;20028;-69
2022/01/22 09:53:15;;;;;;;45.75;28.02;;;;;;;4.87;100.00;103333.72;5073229;28;20379;-71
2022/01/22 09:55:40;;;;;;;46.65;28.35;;;;;;;4.87;100.00;103336.34;5073468;28;20071;-71
2022/01/22 09:58:07;;;;;;;44.30;28.23;;;;;;;4.89;100.00;103336.44;5073419;28;20028;-71
2022/01/22 10:00:32;;;;;;;43.75;27.08;;;;;;;4.89;100.00;103328.59;5073067;28;20040;-71
2022/01/22 10:02:58;;;;;;;42.72;26.77;;;;;;;4.92;100.00;103333.13;5073375;28;20029;-71
2022/01/22 10:05:34;;;;;;;43.60;27.83;;;;;;;4.92;100.00;103336.66;5073346;28;20066;-71
2022/01/22 10:08:18;;;;;;;42.08;27.45;;;;;;;4.95;100.00;103339.50;5069921;28;20025;-72
2022/01/22 10:10:44;;;;;;;43.95;26.65;;;;;;;4.97;100.00;103336.97;5072966;28;20032;-71
2022/01/22 10:13:09;;;;;;;44.08;27.55;;;;;;;4.97;100.00;103335.25;5071605;28;20032;-71
2022/01/22 10:15:35;;;;;;;42.65;26.75;;;;;;;4.98;100.00;103336.16;5073198;28;20103;-71
2022/01/22 10:18:02;;;;;;;41.78;27.55;;;;;;;4.97;100.00;103340.50;5072865;28;20058;-71
2022/01/22 10:20:40;;;;;;;42.58;27.38;;;;;;;5.00;100.00;103332.84;5072632;28;20044;-71
2022/01/22 10:23:20;;;;;;;42.72;27.45;;;;;;;5.02;100.00;103341.75;5073111;28;20547;-71
2022/01/22 10:25:55;;;;;;;45.17;27.20;;;;;;;5.04;100.00;103344.47;5073038;28;20031;-71
2022/01/22 10:28:23;;;;;;;43.45;27.50;;;;;;;5.04;100.00;103336.59;5073120;28;20446;-71
2022/01/22 10:30:59;;;;;;;41.95;26.60;;;;;;;5.03;100.00;103333.03;5072645;28;20028;-71
2022/01/22 10:33:36;;;;;;;42.53;26.02;;;;;;;5.07;100.00;103339.41;5069589;28;20417;-71
2022/01/22 10:36:16;;;;;;;43.72;26.63;;;;;;;5.06;100.00;103346.34;5070442;28;20020;-71
2022/01/22 10:38:49;;;;;;;41.97;25.85;;;;;;;5.06;100.00;103341.09;5072945;28;20036;-71
2022/01/22 10:41:19;;;;;;;43.13;25.67;;;;;;;5.05;100.00;103334.06;5072254;28;20467;-71
2022/01/22 10:43:55;;;;;;;42.47;25.85;;;;;;;5.06;100.00;103340.22;5072020;28;20025;-70
2022/01/22 10:49:09;;;;;;;41.60;25.52;;;;;;;5.11;100.00;103337.88;5069598;28;20037;-69
2022/01/22 10:51:54;;;;;;;40.33;25.55;;;;;;;5.12;100.00;103345.84;5072482;28;20024;-72
2022/01/22 10:54:22;;;;;;;41.13;25.45;;;;;;;5.10;100.00;103346.56;5068615;28;20388;-70
2022/01/22 10:56:48;;;;;;;41.75;25.65;;;;;;;5.12;100.00;103343.22;5068586;28;20020;-70
2022/01/22 10:59:18;;;;;;;42.08;25.92;;;;;;;5.14;100.00;103345.94;5072389;28;20455;-70
2022/01/22 11:01:43;;;;;;;40.85;26.63;;;;;;;5.14;100.00;103344.25;5072279;28;20067;-70
2022/01/22 11:04:11;;;;;;;41.05;26.38;;;;;;;5.19;100.00;103353.31;5072434;28;20475;-69
2022/01/22 11:06:45;;;;;;;45.88;27.27;;;;;;;5.15;100.00;103351.31;5072356;28;20108;-70
2022/01/22 11:09:11;;;;;;;41.95;26.58;;;;;;;5.14;100.00;103348.56;5072645;28;20124;-70
2022/01/22 11:11:40;;;;;;;46.35;27.88;;;;;;;5.15;100.00;103339.91;5072791;28;20107;-69
2022/01/22 11:14:08;;;;;;;41.65;26.35;;;;;;;5.20;100.00;103347.28;5072181;28;20544;-69
2022/01/22 11:16:34;;;;;;;44.45;28.42;;;;;;;5.17;100.00;103333.97;5072242;28;20421;-70
2022/01/22 11:19:01;;;;;;;43.22;27.58;;;;;;;5.15;100.00;103340.81;5072676;28;20112;-70
2022/01/22 11:21:27;;;;;;;44.28;27.77;;;;;;;5.18;100.00;103330.53;5071876;28;20041;-70
2022/01/22 11:23:53;;;;;;;44.97;30.38;;;;;;;5.17;100.00;103323.47;5072143;28;20028;-70
2022/01/22 11:26:20;;;;;;;47.10;29.63;;;;;;;5.16;100.00;103319.03;5072656;28;20082;-70
2022/01/22 11:28:50;;;;;;;44.13;29.50;;;;;;;5.17;100.00;103317.31;5072173;28;20462;-70
2022/01/22 11:31:17;;;;;;;45.65;29.25;;;;;;;5.14;100.00;103312.78;5072194;28;20090;-70
2022/01/22 11:33:46;;;;;;;45.15;29.20;;;;;;;5.16;100.00;103329.53;5072616;28;20029;-70
2022/01/22 11:36:57;;;;;;;45.67;30.58;;;;;;;5.27;100.00;103322.38;5071980;28;20016;-71
2022/01/22 11:39:24;;;;;;;42.92;29.45;;;;;;;5.25;100.00;103323.97;5006945;28;20156;-68
2022/01/22 11:41:54;;;;;;;46.30;29.88;;;;;;;5.20;100.00;103321.06;5010541;28;20068;-68
2022/01/22 11:44:48;;;;;;;42.47;28.65;;;;;;;5.23;100.00;103321.25;5006520;28;20045;-68
2022/01/22 11:47:24;;;;;;;46.72;32.55;;;;;;;5.23;100.00;103318.63;5009794;28;20022;-68
2022/01/22 11:50:21;;;;;;;47.15;31.98;;;;;;;5.27;100.00;103324.06;5006626;28;20030;-68
2022/01/22 11:52:47;;;;;;;46.90;31.05;;;;;;;5.26;100.00;103317.94;4925465;29;20048;-69
2022/01/22 11:55:16;;;;;;;47.95;30.67;;;;;;;5.36;100.00;103324.69;4927700;29;20593;-70
2022/01/22 11:57:44;;;;;;;50.40;33.00;;;;;;;5.28;100.00;103321.56;4925776;29;20126;-71
2022/01/22 12:00:22;;;;;;;48.50;32.60;;;;;;;5.28;100.00;103318.94;4927416;29;20028;-70
2022/01/22 12:03:08;;;;;;;46.42;30.88;;;;;;;5.32;100.00;103312.19;4925099;29;20592;-70
2022/01/22 12:05:54;;;;;;;48.28;31.48;;;;;;;5.33;100.00;103313.97;4926765;29;20079;-70
2022/01/22 12:08:23;;;;;;;48.53;31.15;;;;;;;5.32;100.00;103320.94;4928281;29;20044;-70
2022/01/22 12:16:39;;;;;;;45.80;29.67;;;;;;;5.37;100.00;103318.63;4981838;28;20093;-73
2022/01/22 12:19:10;;;;;;;45.50;28.80;;;;;;;5.37;100.00;103314.31;4984011;28;20042;-73
2022/01/22 12:21:38;;;;;;;44.70;28.95;;;;;;;5.32;100.00;103313.09;4983989;28;20101;-72
2022/01/22 12:24:05;;;;;;;43.55;28.15;;;;;;;5.31;100.00;103311.25;4984278;28;20046;-72
2022/01/22 12:26:43;;;;;;;44.78;29.60;;;;;;;5.31;100.00;103315.59;4983345;28;20026;-72
2022/01/22 12:29:29;;;;;;;47.60;30.70;;;;;;;5.28;100.00;103321.56;5025670;28;20053;-73
2022/01/22 12:32:25;;;;;;;48.80;31.02;;;;;;;5.25;100.00;103323.97;5069561;28;20400;-71
2022/01/22 12:35:06;;;;;;;48.50;28.42;;;;;;;5.23;100.00;103325.59;5068756;28;20043;-71
2022/01/22 12:37:32;;;;;;;48.83;30.70;;;;;;;5.19;100.00;103320.97;5070507;28;20392;-70
2022/01/22 12:40:04;;;;;;;47.83;30.25;;;;;;;5.14;100.00;103322.34;5072733;28;20036;-71
2022/01/22 12:42:54;;;;;;;50.28;32.60;;;;;;;5.15;100.00;103321.56;5072550;28;20028;-70
2022/01/22 12:45:22;;;;;;;49.58;32.35;;;;;;;5.12;100.00;103308.25;5072539;28;20091;-69
2022/01/22 12:47:49;;;;;;;49.78;30.58;;;;;;;5.12;100.00;103323.97;5072552;28;20036;-69
2022/01/22 12:50:15;;;;;;;50.03;31.65;;;;;;;5.10;100.00;103318.63;5073098;28;20093;-69
2022/01/22 12:52:45;;;;;;;48.28;30.08;;;;;;;5.11;100.00;103325.72;5074612;28;20103;-69
2022/01/22 12:55:19;;;;;;;49.00;31.83;;;;;;;5.13;100.00;103323.19;5074929;28;20032;-69
2022/01/22 12:57:44;;;;;;;48.17;29.50;;;;;;;5.20;100.00;103328.03;5074853;28;20032;-69
2022/01/22 13:00:17;;;;;;;48.58;28.95;;;;;;;5.17;100.00;103317.31;5074433;28;20028;-69